Weather at Kincardine Municipal Airport

Public forecast

Using degrees Celsius for public forecast. Weather courtesy of forecast.io.

Closest aviation weather report (METAR) to Kincardine Municipal Airport

Closest report is Wiarton Airport, 39.1 nm (72.4 km) NNE. Retrieved 2021/09/25 05:00 UTC (40 minutes ago):

CYVV 250500Z 15010KT 15SM FEW250 11/08 A2990 RMK CI1 CI TR SLP130

Closest aviation forecast (TAF) to Kincardine Municipal Airport

Forecast is more than 6 hours old.

Closest forecast is Wiarton Airport, 39.1 nm (72.4 km) NNE. Retrieved 2021/09/24 20:00 UTC (10 hours ago):

TAF CYVV 241938Z 2420/2423 25012G22KT P6SM BKN025 TEMPO 2420/2422 BKN020 FM242200 23012G22KT P6SM SCT030 RMK NXT FCST WILL BE ISSUED AT 251045Z